Observation data for Paducah on 06/15/2019      Previous  Date  Next       Current Mesonet Observations  Soil Data  Daily Summary Page  Observations in Plain Language
KPAD 150500Z 19013G19KT 26/18 A2981 RMK A01 T02580179  RH  065%=      5-min Rain = 0
KPAD 150505Z 19014KT 26/18 A2981 RMK A01 T02610178  RH  063%=      5-min Rain = 0
KPAD 150510Z 19015KT 26/18 A2981 RMK A01 T02600178  RH  064%=      5-min Rain = 0
KPAD 150515Z 17015KT 26/18 A2981 RMK A01 T02640175  RH  061%=      5-min Rain = 0
KPAD 150520Z 17013G18KT 27/18 A2981 RMK A01 T02650176  RH  061%=      5-min Rain = 0
KPAD 150525Z 16012KT 26/18 A2981 RMK A01 T02630177  RH  062%=      5-min Rain = 0
KPAD 150530Z 16012KT 26/18 A298 RMK A01 T02600178  RH  064%=      5-min Rain = 0
KPAD 150535Z 15011KT 26/18 A298 RMK A01 T02580178  RH  065%=      5-min Rain = 0
KPAD 150540Z 15012KT 26/18 A298 RMK A01 T02560179  RH  066%=      5-min Rain = 0
KPAD 150545Z 15011KT 26/18 A298 RMK A01 T02550179  RH  066%=      5-min Rain = 0
KPAD 150550Z 15012KT 25/18 A298 RMK A01 T02540178  RH  066%=      5-min Rain = 0
KPAD 150555Z 15012KT 26/18 A298 RMK A01 T02550176  RH  065%=      5-min Rain = 0
KPAD 150600Z 16011G17KT 25/18 A298 RMK A01 T02540177  RH  066%=      5-min Rain = 0
KPAD 150605Z 16010G15KT 25/18 A298 RMK A01 T02530177  RH  066%=      5-min Rain = 0
KPAD 150610Z 17010KT 25/18 A2981 RMK A01 T02520177  RH  066%=      5-min Rain = 0
KPAD 150615Z 17010KT 25/18 A2981 RMK A01 T02500177  RH  067%=      5-min Rain = 0
KPAD 150620Z 17011KT 25/18 A2981 RMK A01 T02490176  RH  067%=      5-min Rain = 0
KPAD 150625Z 17012KT 25/18 A2981 RMK A01 T02490175  RH  067%=      5-min Rain = 0
KPAD 150630Z 17012KT 25/18 A298 RMK A01 T02480175  RH  067%=      5-min Rain = 0
KPAD 150635Z 17011KT 25/18 A298 RMK A01 T02460175  RH  068%=      5-min Rain = 0
KPAD 150640Z 17012KT 25/17 A298 RMK A01 T02450174  RH  068%=      5-min Rain = 0
KPAD 150645Z 17012KT 25/17 A298 RMK A01 T02450173  RH  068%=      5-min Rain = 0
KPAD 150650Z 17011KT 24/17 A2979 RMK A01 T02430173  RH  068%=      5-min Rain = 0
KPAD 150655Z 18012KT 24/17 A2979 RMK A01 T02410173  RH  069%=      5-min Rain = 0
KPAD 150700Z 18012KT 24/17 A2979 RMK A01 T02400172  RH  069%=      5-min Rain = 0
KPAD 150705Z 18012KT 24/17 A2978 RMK A01 T02400172  RH  069%=      5-min Rain = 0
KPAD 150710Z 18011G16KT 24/17 A2978 RMK A01 T02400171  RH  069%=      5-min Rain = 0
KPAD 150715Z 18012G17KT 24/17 A2978 RMK A01 T02400171  RH  069%=      5-min Rain = 0
KPAD 150720Z 18012KT 24/17 A2978 RMK A01 T02390171  RH  069%=      5-min Rain = 0
KPAD 150725Z 18011KT 24/17 A2977 RMK A01 T02370171  RH  070%=      5-min Rain = 0
KPAD 150730Z 19012KT 24/17 A2977 RMK A01 T02360170  RH  070%=      5-min Rain = 0
KPAD 150735Z 19013G18KT 24/17 A2977 RMK A01 T02360169  RH  070%=      5-min Rain = 0
KPAD 150740Z 19012KT 24/17 A2977 RMK A01 T02360169  RH  069%=      5-min Rain = 0
KPAD 150745Z 19013KT 24/17 A2977 RMK A01 T02350169  RH  070%=      5-min Rain = 0
KPAD 150750Z 19013KT 23/17 A2976 RMK A01 T02340168  RH  070%=      5-min Rain = 0
KPAD 150755Z 19013KT 23/17 A2976 RMK A01 T02320168  RH  071%=      5-min Rain = 0
KPAD 150800Z 19013KT 23/17 A2976 RMK A01 T02300167  RH  071%=      5-min Rain = 0
KPAD 150805Z 19013KT 23/17 A2976 RMK A01 T02300167  RH  071%=      5-min Rain = 0
KPAD 150810Z 19014KT 23/17 A2976 RMK A01 T02310166  RH  070%=      5-min Rain = 0
KPAD 150815Z 20015G20KT 23/17 A2975 RMK A01 T02330165  RH  069%=      5-min Rain = 0
KPAD 150820Z 20014KT 23/17 A2975 RMK A01 T02330165  RH  069%=      5-min Rain = 0
KPAD 150825Z 20014G19KT 23/17 A2975 RMK A01 T02320165  RH  069%=      5-min Rain = 0
KPAD 150830Z 20013KT 23/16 A2975 RMK A01 T02310164  RH  069%=      5-min Rain = 0
KPAD 150835Z 19013G18KT 23/16 A2975 RMK A01 T02300164  RH  070%=      5-min Rain = 0
KPAD 150840Z 19013KT 23/16 A2975 RMK A01 T02290164  RH  070%=      5-min Rain = 0
KPAD 150845Z 19013KT 23/16 A2975 RMK A01 T02300163  RH  069%=      5-min Rain = 0
KPAD 150850Z 19013KT 23/16 A2974 RMK A01 T02300163  RH  069%=      5-min Rain = 0
KPAD 150855Z 19012KT 23/16 A2974 RMK A01 T02310162  RH  068%=      5-min Rain = 0
KPAD 150900Z 19012KT 23/16 A2974 RMK A01 T02300162  RH  069%=      5-min Rain = 0
KPAD 150905Z 19012KT 23/16 A2974 RMK A01 T02290162  RH  069%=      5-min Rain = 0
KPAD 150910Z 18012KT 23/16 A2974 RMK A01 T02280162  RH  070%=      5-min Rain = 0
KPAD 150915Z 18011KT 23/16 A2974 RMK A01 T02260162  RH  071%=      5-min Rain = 0
KPAD 150920Z 18010KT 23/16 A2974 RMK A01 T02250163  RH  071%=      5-min Rain = 0
KPAD 150925Z 17011KT 22/16 A2974 RMK A01 T02210163  RH  073%=      5-min Rain = 0
KPAD 150930Z 17011KT 22/16 A2974 RMK A01 T02180164  RH  074%=      5-min Rain = 0
KPAD 150935Z 17012KT 22/16 A2974 RMK A01 T02160164  RH  076%=      5-min Rain = 0
KPAD 150940Z 18012KT 22/16 A2974 RMK A01 T02160164  RH  075%=      5-min Rain = 0
KPAD 150945Z 18013KT 22/16 A2974 RMK A01 T02170163  RH  075%=      5-min Rain = 0
KPAD 150950Z 18013KT 22/16 A2974 RMK A01 T02180163  RH  075%=      5-min Rain = 0
KPAD 150955Z 19014KT 22/16 A2974 RMK A01 T02180162  RH  074%=      5-min Rain = 0
KPAD 151000Z 19014KT 22/16 A2974 RMK A01 T02170162  RH  074%=      5-min Rain = 0
KPAD 151005Z 19013KT 22/16 A2974 RMK A01 T02170162  RH  074%=      5-min Rain = 0
KPAD 151010Z 19013KT 21/16 A2974 RMK A01 T02140162  RH  076%=      5-min Rain = 0
KPAD 151015Z 19012KT 21/16 A2974 RMK A01 T02120161  RH  076%=      5-min Rain = 0
KPAD 151020Z 19011KT 21/16 A2974 RMK A01 T02090161  RH  078%=      5-min Rain = 0
KPAD 151025Z 19012KT 21/16 A2973 RMK A01 T02090161  RH  078%=      5-min Rain = 0
KPAD 151030Z 19011KT 21/16 A2973 RMK A01 T02070161  RH  078%=      5-min Rain = 0
KPAD 151035Z 19012KT 21/16 A2973 RMK A01 T02060161  RH  079%=      5-min Rain = 0
KPAD 151040Z 19013KT 21/16 A2973 RMK A01 T02060161  RH  079%=      5-min Rain = 0
KPAD 151045Z 19012KT 21/16 A2973 RMK A01 T02050161  RH  079%=      5-min Rain = 0
KPAD 151050Z 18012KT 21/16 A2973 RMK A01 T02060161  RH  079%=      5-min Rain = 0
KPAD 151055Z 18012KT 21/16 A2973 RMK A01 T02060161  RH  079%=      5-min Rain = 0
KPAD 151100Z 18011KT 21/16 A2973 RMK A01 T02050161  RH  080%=      5-min Rain = 0
KPAD 151105Z 18010KT 20/16 A2973 RMK A01 T02030161  RH  081%=      5-min Rain = 0
KPAD 151110Z 18010KT 20/16 A2973 RMK A01 T02020162  RH  081%=      5-min Rain = 0
KPAD 151115Z 18010KT 20/16 A2974 RMK A01 T02010161  RH  082%=      5-min Rain = 0
KPAD 151120Z 18010KT 20/16 A2973 RMK A01 T02000161  RH  082%=      5-min Rain = 0
KPAD 151125Z 18010KT 20/16 A2973 RMK A01 T01990161  RH  083%=      5-min Rain = 0
KPAD 151130Z 18010KT 20/16 A2973 RMK A01 T01980161  RH  083%=      5-min Rain = 0
KPAD 151135Z 19010KT 20/16 A2974 RMK A01 T01950160  RH  084%=      5-min Rain = 0
KPAD 151140Z 19010KT 19/16 A2974 RMK A01 T01910159  RH  086%=      5-min Rain = 0
KPAD 151145Z 19011KT 19/16 A2974 RMK A01 T01900159  RH  087%=      5-min Rain = 0
KPAD 151150Z 19011KT 19/16 A2975 RMK A01 T01890160  RH  087%=      5-min Rain = 0
KPAD 151155Z 19011KT 19/16 A2975 RMK A01 T01910161  RH  087%=      5-min Rain = 0
KPAD 151200Z 20011KT 19/16 A2975 RMK A01 T01940162  RH  086%=      5-min Rain = 0
KPAD 151205Z 20011KT 20/16 A2975 RMK A01 T01970163  RH  084%=      5-min Rain = 0
KPAD 151210Z 19011KT 20/16 A2975 RMK A01 T02000163  RH  083%=      5-min Rain = 0
KPAD 151215Z 19010KT 20/16 A2975 RMK A01 T02020164  RH  083%=      5-min Rain = 0
KPAD 151220Z 19011KT 20/16 A2976 RMK A01 T02040164  RH  082%=      5-min Rain = 0
KPAD 151225Z 19011KT 21/17 A2975 RMK A01 T02060165  RH  081%=      5-min Rain = 0
KPAD 151230Z 19011KT 21/17 A2976 RMK A01 T02080166  RH  080%=      5-min Rain = 0
KPAD 151235Z 19012KT 21/17 A2975 RMK A01 T02120166  RH  079%=      5-min Rain = 0
KPAD 151240Z 19012KT 22/17 A2975 RMK A01 T02150167  RH  078%=      5-min Rain = 0
KPAD 151245Z 19011KT 22/17 A2975 RMK A01 T02160168  RH  078%=      5-min Rain = 0
KPAD 151250Z 20011KT 22/17 A2975 RMK A01 T02180169  RH  077%=      5-min Rain = 0
KPAD 151255Z 20012G17KT 22/17 A2975 RMK A01 T02200169  RH  076%=      5-min Rain = 0
KPAD 151300Z 20011KT 22/17 A2975 RMK A01 T02230171  RH  076%=      5-min Rain = 0
KPAD 151305Z 20011KT 23/17 A2975 RMK A01 T02260171  RH  075%=      5-min Rain = 0
KPAD 151310Z 20012KT 23/17 A2976 RMK A01 T02290172  RH  074%=      5-min Rain = 0
KPAD 151315Z 20013KT 23/17 A2976 RMK A01 T02320170  RH  072%=      5-min Rain = 0
KPAD 151320Z 20013G18KT 24/17 A2976 RMK A01 T02360171  RH  070%=      5-min Rain = 0
KPAD 151325Z 20013KT 24/17 A2976 RMK A01 T02390171  RH  069%=      5-min Rain = 0
KPAD 151330Z 20013KT 24/17 A2976 RMK A01 T02420172  RH  068%=      5-min Rain = 0
KPAD 151335Z 20014KT 24/17 A2976 RMK A01 T02440171  RH  067%=      5-min Rain = 0
KPAD 151340Z 20014G21KT 25/17 A2976 RMK A01 T02470172  RH  066%=      5-min Rain = 0
KPAD 151345Z 20013KT 25/17 A2976 RMK A01 T02490172  RH  065%=      5-min Rain = 0
KPAD 151350Z 20014G19KT 25/17 A2976 RMK A01 T02510171  RH  065%=      5-min Rain = 0
KPAD 151355Z 20015G21KT 25/17 A2977 RMK A01 T02520170  RH  064%=      5-min Rain = 0
KPAD 151400Z 20013KT 26/17 A2977 RMK A01 T02550171  RH  063%=      5-min Rain = 0
KPAD 151405Z 21013G18KT 26/17 A2977 RMK A01 T02580171  RH  062%=      5-min Rain = 0
KPAD 151410Z 21011G16KT 26/17 A2977 RMK A01 T02610173  RH  061%=      5-min Rain = 0
KPAD 151415Z 21010G15KT 26/17 A2978 RMK A01 T02630173  RH  061%=      5-min Rain = 0
KPAD 151420Z 21012G17KT 27/17 A2977 RMK A01 T02670173  RH  059%=      5-min Rain = 0
KPAD 151425Z 21012KT 27/17 A2977 RMK A01 T02690172  RH  058%=      5-min Rain = 0
KPAD 151430Z 21013G18KT 27/17 A2977 RMK A01 T02710168  RH  056%=      5-min Rain = 0
KPAD 151435Z 22014G19KT 27/17 A2977 RMK A01 T02730167  RH  055%=      5-min Rain = 0
KPAD 151440Z 21016KT 27/16 A2977 RMK A01 T02730164  RH  054%=      5-min Rain = 0
KPAD 151445Z 21016G21KT 27/17 A2977 RMK A01 T02740165  RH  054%=      5-min Rain = 0
KPAD 151450Z 21016G22KT 28/16 A2977 RMK A01 T02770164  RH  053%=      5-min Rain = 0
KPAD 151455Z 21016G21KT 28/16 A2977 RMK A01 T02790162  RH  052%=      5-min Rain = 0
KPAD 151500Z 21016KT 28/16 A2977 RMK A01 T02810162  RH  051%=      5-min Rain = 0
KPAD 151505Z 22016KT 28/16 A2977 RMK A01 T02820162  RH  050%=      5-min Rain = 0
KPAD 151510Z 21015KT 29/16 A2976 RMK A01 T02850162  RH  050%=      5-min Rain = 0
KPAD 151515Z 22014G19KT 29/16 A2977 RMK A01 T02880163  RH  049%=      5-min Rain = 0
KPAD 151520Z 23013KT 29/16 A2977 RMK A01 T02900161  RH  048%=      5-min Rain = 0
KPAD 151525Z 22012G19KT 29/16 A2977 RMK A01 T02920160  RH  047%=      5-min Rain = 0
KPAD 151530Z 22013G20KT 29/16 A2977 RMK A01 T02930160  RH  047%=      5-min Rain = 0
KPAD 151535Z 22014KT 30/16 A2976 RMK A01 T02950160  RH  046%=      5-min Rain = 0
KPAD 151540Z 21014G19KT 30/16 A2976 RMK A01 T02980161  RH  046%=      5-min Rain = 0
KPAD 151545Z 22014G19KT 30/16 A2976 RMK A01 T03000159  RH  045%=      5-min Rain = 0
KPAD 151550Z 22016KT 30/16 A2976 RMK A01 T02990155  RH  044%=      5-min Rain = 0
KPAD 151555Z 21018G25KT 30/16 A2975 RMK A01 T03000155  RH  043%=      5-min Rain = 0
KPAD 151600Z 21017G22KT 30/16 A2975 RMK A01 T03020155  RH  043%=      5-min Rain = 0
KPAD 151605Z 23012G19KT 30/15 A2976 RMK A01 T03020154  RH  043%=      5-min Rain = 0
KPAD 151610Z 22012G17KT 31/15 A2976 RMK A01 T03050154  RH  042%=      5-min Rain = 0
KPAD 151615Z 22013G18KT 31/15 A2975 RMK A01 T03070154  RH  041%=      5-min Rain = 0
KPAD 151620Z 21014G19KT 31/15 A2976 RMK A01 T03080150  RH  040%=      5-min Rain = 0
KPAD 151625Z 22012G17KT 31/15 A2976 RMK A01 T03090151  RH  040%=      5-min Rain = 0
KPAD 151630Z 21016G21KT 31/15 A2976 RMK A01 T03090146  RH  039%=      5-min Rain = 0
KPAD 151635Z 23011G16KT 31/15 A2976 RMK A01 T03110151  RH  040%=      5-min Rain = 0
KPAD 151640Z 23010G17KT 31/15 A2976 RMK A01 T03130148  RH  038%=      5-min Rain = 0
KPAD 151645Z 23011G16KT 32/15 A2976 RMK A01 T03170153  RH  039%=      5-min Rain = 0
KPAD 151650Z 22011KT 32/15 A2976 RMK A01 T03160148  RH  038%=      5-min Rain = 0
KPAD 151655Z 22011KT 32/15 A2976 RMK A01 T03190153  RH  038%=      5-min Rain = 0
KPAD 151700Z 22010G15KT 32/15 A2976 RMK A01 T03200152  RH  038%=      5-min Rain = 0
KPAD 151705Z 22009KT 32/15 A2976 RMK A01 T03210151  RH  037%=      5-min Rain = 0
KPAD 151710Z 21010G15KT 32/15 A2976 RMK A01 T03210146  RH  036%=      5-min Rain = 0
KPAD 151715Z 23008G14KT 32/15 A2977 RMK A01 T03230153  RH  038%=      5-min Rain = 0
KPAD 151720Z 23010KT 33/15 A2976 RMK A01 T03250147  RH  036%=      5-min Rain = 0
KPAD 151725Z 23011G16KT 32/15 A2977 RMK A01 T03240145  RH  035%=      5-min Rain = 0
KPAD 151730Z 24010G17KT 33/15 A2976 RMK A01 T03250147  RH  036%=      5-min Rain = 0
KPAD 151735Z 22010G15KT 33/15 A2976 RMK A01 T03280150  RH  036%=      5-min Rain = 0
KPAD 151740Z 23010G15KT 33/15 A2976 RMK A01 T03300149  RH  035%=      5-min Rain = 0
KPAD 151745Z 23009G14KT 33/15 A2976 RMK A01 T03300145  RH  034%=      5-min Rain = 0
KPAD 151750Z 21008G13KT 33/15 A2976 RMK A01 T03300145  RH  034%=      5-min Rain = 0
KPAD 151755Z 20008KT 33/15 A2976 RMK A01 T03330149  RH  035%=      5-min Rain = 0
KPAD 151800Z 22008G13KT 34/15 A2976 RMK A01 T03370152  RH  034%=      5-min Rain = 0
KPAD 151805Z 22007G12KT 34/15 A2976 RMK A01 T03360147  RH  034%=      5-min Rain = 0
KPAD 151810Z 23007KT 34/15 A2975 RMK A01 T03380145  RH  033%=      5-min Rain = 0
KPAD 151815Z 21008G13KT 34/15 A2975 RMK A01 T03400147  RH  033%=      5-min Rain = 0
KPAD 151820Z 21009G14KT 34/15 A2975 RMK A01 T03420146  RH  032%=      5-min Rain = 0
KPAD 151825Z 22009KT 34/15 A2975 RMK A01 T03430145  RH  032%=      5-min Rain = 0
KPAD 151830Z 22009KT 34/14 A2975 RMK A01 T03420141  RH  031%=      5-min Rain = 0
KPAD 151835Z 21010G15KT 34/14 A2975 RMK A01 T03410141  RH  031%=      5-min Rain = 0
KPAD 151840Z 21010KT 34/14 A2975 RMK A01 T03440143  RH  031%=      5-min Rain = 0
KPAD 151845Z 22007G14KT 34/14 A2975 RMK A01 T03440141  RH  031%=      5-min Rain = 0
KPAD 151850Z 20009G16KT 35/14 A2975 RMK A01 T03470141  RH  030%=      5-min Rain = 0
KPAD 151855Z 21008G15KT 35/15 A2975 RMK A01 T03490145  RH  031%=      5-min Rain = 0
KPAD 151900Z 22008KT 35/15 A2975 RMK A01 T03520151  RH  032%=      5-min Rain = 0
KPAD 151905Z 22008KT 35/14 A2975 RMK A01 T03510140  RH  030%=      5-min Rain = 0
KPAD 151910Z 22008G13KT 35/14 A2975 RMK A01 T03510144  RH  030%=      5-min Rain = 0
KPAD 151915Z 23009G15KT 35/14 A2975 RMK A01 T03530142  RH  030%=      5-min Rain = 0
KPAD 151920Z 24006G11KT 35/14 A2974 RMK A01 T03530140  RH  029%=      5-min Rain = 0
KPAD 151925Z 30006G11KT 35/16 A2974 RMK A01 T03530155  RH  032%=      5-min Rain = 0
KPAD 151930Z 32007KT 35/16 A2974 RMK A01 T03490160  RH  034%=      5-min Rain = 0
KPAD 151935Z 31007KT 35/16 A2974 RMK A01 T03480158  RH  034%=      5-min Rain = 0
KPAD 151940Z 30007KT 35/16 A2974 RMK A01 T03500158  RH  034%=      5-min Rain = 0
KPAD 151945Z 29007KT 35/16 A2974 RMK A01 T03500158  RH  033%=      5-min Rain = 0
KPAD 151950Z 29006KT 35/16 A2974 RMK A01 T03510155  RH  033%=      5-min Rain = 0
KPAD 151955Z 31006KT 35/16 A2974 RMK A01 T03500160  RH  034%=      5-min Rain = 0
KPAD 152000Z 32007KT 35/16 A2974 RMK A01 T03490162  RH  035%=      5-min Rain = 0
KPAD 152005Z 28007KT 35/16 A2974 RMK A01 T03500155  RH  033%=      5-min Rain = 0
KPAD 152010Z 32009KT 35/16 A2974 RMK A01 T03470157  RH  034%=      5-min Rain = 0
KPAD 152015Z 31008KT 35/16 A2974 RMK A01 T03490159  RH  034%=      5-min Rain = 0
KPAD 152020Z 32008G13KT 35/16 A2974 RMK A01 T03460158  RH  034%=      5-min Rain = 0
KPAD 152025Z 28009KT 35/15 A2974 RMK A01 T03460154  RH  033%=      5-min Rain = 0
KPAD 152030Z 31007KT 35/16 A2974 RMK A01 T03460156  RH  034%=      5-min Rain = 0
KPAD 152035Z 31006KT 35/16 A2973 RMK A01 T03460156  RH  034%=      5-min Rain = 0
KPAD 152040Z 32006KT 35/16 A2973 RMK A01 T03500156  RH  033%=      5-min Rain = 0
KPAD 152045Z 28005KT 35/15 A2973 RMK A01 T03480154  RH  033%=      5-min Rain = 0
KPAD 152050Z 28007KT 35/15 A2973 RMK A01 T03500152  RH  032%=      5-min Rain = 0
KPAD 152055Z 31007KT 34/15 A2973 RMK A01 T03430153  RH  034%=      5-min Rain = 0
KPAD 152100Z 30007KT 34/16 A2973 RMK A01 T03360159  RH  036%=      5-min Rain = 0
KPAD 152105Z 30007KT 33/16 A2973 RMK A01 T03330160  RH  037%=      5-min Rain = 0
KPAD 152110Z 31006KT 33/17 A2973 RMK A01 T03310165  RH  039%=      5-min Rain = 0
KPAD 152115Z 31007KT 33/17 A2973 RMK A01 T03330165  RH  038%=      5-min Rain = 0
KPAD 152120Z 32007KT 34/16 A2973 RMK A01 T03390159  RH  036%=      5-min Rain = 0
KPAD 152125Z 31007KT 34/15 A2973 RMK A01 T03380154  RH  035%=      5-min Rain = 0
KPAD 152130Z 32006KT 35/16 A2972 RMK A01 T03460157  RH  034%=      5-min Rain = 0
KPAD 152135Z 31008KT 35/15 A2972 RMK A01 T03460148  RH  032%=      5-min Rain = 0
KPAD 152140Z 30008KT 34/15 A2973 RMK A01 T03360146  RH  033%=      5-min Rain = 0
KPAD 152145Z 30007KT 33/15 A2973 RMK A01 T03310148  RH  035%=      5-min Rain = 0
KPAD 152150Z 30006KT 33/16 A2973 RMK A01 T03280155  RH  037%=      5-min Rain = 0
KPAD 152155Z 31005KT 33/16 A2972 RMK A01 T03260160  RH  039%=      5-min Rain = 0
KPAD 152200Z 33006KT 33/16 A2972 RMK A01 T03340160  RH  037%=      5-min Rain = 0
KPAD 152205Z 33009KT 34/15 A2971 RMK A01 T03440153  RH  033%=      5-min Rain = 0
KPAD 152210Z 33009KT 33/15 A2971 RMK A01 T03340146  RH  034%=      5-min Rain = 0
KPAD 152215Z 32007KT 33/16 A2971 RMK A01 T03270157  RH  038%=      5-min Rain = 0
KPAD 152220Z 33006KT 33/17 A2971 RMK A01 T03270165  RH  040%=      5-min Rain = 0
KPAD 152225Z 33005KT 34/16 A2971 RMK A01 T03390158  RH  036%=      5-min Rain = 0
KPAD 152230Z 33005KT 34/15 A2971 RMK A01 T03390150  RH  034%=      5-min Rain = 0
KPAD 152235Z 35005KT 34/16 A2971 RMK A01 T03380155  RH  035%=      5-min Rain = 0
KPAD 152240Z 35005KT 34/15 A2971 RMK A01 T03380151  RH  034%=      5-min Rain = 0
KPAD 152245Z 35004KT 34/15 A297 RMK A01 T03360151  RH  034%=      5-min Rain = 0
KPAD 152250Z 36004KT 33/16 A297 RMK A01 T03320159  RH  037%=      5-min Rain = 0
KPAD 152255Z 00005KT 33/16 A297 RMK A01 T03260164  RH  040%=      5-min Rain = 0
KPAD 152300Z 36004KT 32/17 A297 RMK A01 T03210169  RH  042%=      5-min Rain = 0
KPAD 152305Z 36003KT 32/17 A2971 RMK A01 T03190171  RH  043%=      5-min Rain = 0
KPAD 152310Z 00004KT 32/18 A297 RMK A01 T03170175  RH  045%=      5-min Rain = 0
KPAD 152315Z 35003KT 32/18 A297 RMK A01 T03150180  RH  047%=      5-min Rain = 0
KPAD 152320Z 35004KT 31/18 A2971 RMK A01 T03120181  RH  048%=      5-min Rain = 0
KPAD 152325Z 35004KT 31/18 A2971 RMK A01 T03100183  RH  049%=      5-min Rain = 0
KPAD 152330Z 36004KT 31/19 A2971 RMK A01 T03060185  RH  051%=      5-min Rain = 0
KPAD 152335Z 34004KT 30/19 A2971 RMK A01 T03030188  RH  053%=      5-min Rain = 0
KPAD 152340Z 28004KT 30/19 A2972 RMK A01 T03000193  RH  056%=      5-min Rain = 0
KPAD 152345Z 32006KT 30/19 A2972 RMK A01 T02970187  RH  055%=      5-min Rain = 0
KPAD 152350Z 34007KT 30/18 A2972 RMK A01 T02950182  RH  053%=      5-min Rain = 0
KPAD 152355Z 34007KT 29/18 A2973 RMK A01 T02940176  RH  052%=      5-min Rain = 0
KPAD 160000Z 31005G10KT 29/18 A2973 RMK A01 T02920180  RH  054%=      5-min Rain = 0
KPAD 160005Z 32010KT 29/18 A2973 RMK A01 T02890181  RH  055%=      5-min Rain = 0
KPAD 160010Z 35011KT 29/17 A2973 RMK A01 T02870172  RH  052%=      5-min Rain = 0
KPAD 160015Z 03009G15KT 29/17 A2973 RMK A01 T02880169  RH  051%=      5-min Rain = 0
KPAD 160020Z 04012KT 29/16 A2973 RMK A01 T02890156  RH  047%=      5-min Rain = 0
KPAD 160025Z 05007KT 30/15 A2974 RMK A01 T02960145  RH  042%=      5-min Rain = 0
KPAD 160030Z 03006KT 30/13 A2974 RMK A01 T03010131  RH  037%=      5-min Rain = 0
KPAD 160035Z 35007KT 31/12 A2974 RMK A01 T03070124  RH  034%=      5-min Rain = 0
KPAD 160040Z 31012G24KT 31/13 A2975 RMK A01 T03060127  RH  035%=      5-min Rain = 0
KPAD 160045Z 31017G30KT 30/12 A2977 RMK A01 T03040118  RH  033%=      5-min Rain = 0
KPAD 160050Z 30024G36KT 29/12 A2977 RMK A01 T02880120  RH  037%=      5-min Rain = 0
KPAD 160055Z 33023G34KT 24/15 A2978 RMK A01 T02360147  RH  060%=      5-min Rain = 0.1
KPAD 160100Z 35024G29KT 21/14 A2974 RMK A01 T02100144  RH  069%=      5-min Rain = 0.05
KPAD 160105Z 36022G29KT 21/14 A2972 RMK A01 T02050142  RH  070%=      5-min Rain = 0.01
KPAD 160110Z 00020G29KT 20/15 A2972 RMK A01 T02030148  RH  074%=      5-min Rain = 0.01
KPAD 160115Z 00023G32KT 21/15 A2973 RMK A01 T02080154  RH  075%=      5-min Rain = 0.01
KPAD 160120Z 35020G27KT 21/17 A2976 RMK A01 T02100165  RH  079%=      5-min Rain = 0
KPAD 160125Z 00013G22KT 21/16 A2976 RMK A01 T02080163  RH  079%=      5-min Rain = 0.02
KPAD 160130Z 32014G22KT 21/16 A2976 RMK A01 T02090160  RH  077%=      5-min Rain = 0.01
KPAD 160135Z 03006KT 21/16 A2974 RMK A01 T02050159  RH  079%=      5-min Rain = 0
KPAD 160140Z 08009KT 20/16 A2975 RMK A01 T02000158  RH  080%=      5-min Rain = 0.01
KPAD 160145Z 11010G18KT 20/16 A2979 RMK A01 T01970158  RH  082%=      5-min Rain = 0
KPAD 160150Z 13013G19KT 20/16 A298 RMK A01 T02040159  RH  079%=      5-min Rain = 0
KPAD 160155Z 15009KT 21/16 A2979 RMK A01 T02060158  RH  077%=      5-min Rain = 0
KPAD 160200Z 17006KT 21/16 A2981 RMK A01 T02050155  RH  076%=      5-min Rain = 0
KPAD 160205Z 33010G15KT 20/16 A2981 RMK A01 T02040155  RH  077%=      5-min Rain = 0
KPAD 160210Z 36009KT 21/15 A298 RMK A01 T02050151  RH  075%=      5-min Rain = 0
KPAD 160215Z 36008KT 20/15 A298 RMK A01 T02030154  RH  077%=      5-min Rain = 0
KPAD 160220Z 05007KT 20/15 A2979 RMK A01 T02010153  RH  078%=      5-min Rain = 0
KPAD 160225Z 04009KT 20/15 A2978 RMK A01 T01990154  RH  079%=      5-min Rain = 0
KPAD 160230Z 06006KT 20/16 A2978 RMK A01 T01980155  RH  080%=      5-min Rain = 0
KPAD 160235Z 12004KT 20/15 A298 RMK A01 T01970153  RH  079%=      5-min Rain = 0
KPAD 160240Z 02006KT 20/15 A2978 RMK A01 T01990152  RH  078%=      5-min Rain = 0
KPAD 160245Z 34009KT 20/16 A2977 RMK A01 T02010155  RH  078%=      5-min Rain = 0
KPAD 160250Z 34010KT 20/16 A2978 RMK A01 T02000158  RH  080%=      5-min Rain = 0
KPAD 160255Z 34013KT 20/16 A2978 RMK A01 T02000156  RH  079%=      5-min Rain = 0
KPAD 160300Z 33011KT 20/15 A2978 RMK A01 T02040151  RH  075%=      5-min Rain = 0
KPAD 160305Z 25008G13KT 21/15 A298 RMK A01 T02090149  RH  072%=      5-min Rain = 0
KPAD 160310Z 18007G15KT 21/15 A2979 RMK A01 T02060146  RH  072%=      5-min Rain = 0.01
KPAD 160315Z 08004G9KT 22/13 A2979 RMK A01 T02200128  RH  058%=      5-min Rain = 0
KPAD 160320Z 12011KT 23/13 A298 RMK A01 T02260134  RH  058%=      5-min Rain = 0
KPAD 160325Z 14011KT 22/14 A2982 RMK A01 T02180143  RH  065%=      5-min Rain = 0
KPAD 160330Z 16010KT 22/14 A2983 RMK A01 T02170143  RH  066%=      5-min Rain = 0
KPAD 160335Z 16011KT 22/14 A2982 RMK A01 T02170144  RH  066%=      5-min Rain = 0
KPAD 160340Z 16011KT 22/15 A2982 RMK A01 T02150145  RH  067%=      5-min Rain = 0
KPAD 160345Z 17007G12KT 21/15 A2983 RMK A01 T02100149  RH  071%=      5-min Rain = 0
KPAD 160350Z 30008KT 21/15 A2981 RMK A01 T02060150  RH  073%=      5-min Rain = 0
KPAD 160355Z 28006G11KT 21/15 A2979 RMK A01 T02080145  RH  070%=      5-min Rain = 0
KPAD 160400Z 28004KT 21/14 A2978 RMK A01 T02140143  RH  067%=      5-min Rain = 0
KPAD 160405Z 21005KT 21/15 A298 RMK A01 T02130147  RH  069%=      5-min Rain = 0
KPAD 160410Z 20007KT 20/15 A2981 RMK A01 T02030152  RH  076%=      5-min Rain = 0
KPAD 160415Z 19004KT 20/15 A298 RMK A01 T01960153  RH  079%=      5-min Rain = 0
KPAD 160420Z 11002KT 20/15 A2978 RMK A01 T01960154  RH  080%=      5-min Rain = 0
KPAD 160425Z 13003KT 20/16 A2977 RMK A01 T01950155  RH  081%=      5-min Rain = 0
KPAD 160430Z 16004KT 20/16 A2978 RMK A01 T01960157  RH  082%=      5-min Rain = 0
KPAD 160435Z 20005KT 20/16 A298 RMK A01 T01960159  RH  083%=      5-min Rain = 0
KPAD 160440Z 23003KT 20/16 A2981 RMK A01 T01950160  RH  084%=      5-min Rain = 0
KPAD 160445Z 21004KT 19/16 A2983 RMK A01 T01940160  RH  085%=      5-min Rain = 0
KPAD 160450Z 20006KT 19/16 A2986 RMK A01 T01930159  RH  085%=      5-min Rain = 0
KPAD 160455Z 24005KT 19/16 A2987 RMK A01 T01920160  RH  086%=      5-min Rain = 0

Page generated in 0.0269 seconds.